createdAt,value
2023-10-09T00:04:46.658Z,11.00
2023-10-09T00:09:48.582Z,12.88
2023-10-09T00:14:57.225Z,13.13
2023-10-09T00:20:01.473Z,10.75
2023-10-09T00:25:12.309Z,11.55
2023-10-09T00:30:19.019Z,11.13
2023-10-09T00:35:39.406Z,11.63
2023-10-09T00:40:46.742Z,11.93
2023-10-09T00:45:48.408Z,12.60
2023-10-09T00:50:54.156Z,10.82
2023-10-09T00:55:57.492Z,11.65
2023-10-09T01:01:00.742Z,11.38
2023-10-09T01:06:12.234Z,12.40
2023-10-09T01:11:24.100Z,12.93
2023-10-09T01:16:25.775Z,10.05
2023-10-09T01:21:32.865Z,11.75
2023-10-09T01:26:41.466Z,12.88
2023-10-09T01:31:48.304Z,11.30
2023-10-09T01:36:50.364Z,11.77
2023-10-09T01:41:58.815Z,12.30
2023-10-09T01:47:00.494Z,11.00
2023-10-09T01:52:09.128Z,9.43
2023-10-09T01:57:13.834Z,8.20
2023-10-09T02:02:25.897Z,8.98
2023-10-09T02:07:30.503Z,7.38
2023-10-09T02:12:34.847Z,7.28
2023-10-09T02:17:36.396Z,7.43
2023-10-09T02:22:38.065Z,6.05
2023-10-09T02:27:47.672Z,6.47
2023-10-09T02:32:53.820Z,5.75
2023-10-09T02:37:55.797Z,5.88
2023-10-09T02:42:57.226Z,5.50
2023-10-09T02:48:00.872Z,5.65
2023-10-09T02:53:10.067Z,5.70
2023-10-09T02:58:21.393Z,4.75
2023-10-09T03:03:23.041Z,5.38
2023-10-09T03:08:24.553Z,5.35
2023-10-09T03:13:26.017Z,5.63
2023-10-09T03:18:27.474Z,5.03
2023-10-09T03:23:30.878Z,4.80
2023-10-09T03:28:32.324Z,4.95
2023-10-09T03:33:34.441Z,5.28
2023-10-09T03:38:37.353Z,4.90
2023-10-09T03:43:42.033Z,5.45
2023-10-09T03:48:46.429Z,5.35
2023-10-09T03:53:52.005Z,5.20
2023-10-09T03:58:54.404Z,4.95
2023-10-09T04:03:56.858Z,4.95
2023-10-09T04:09:00.104Z,4.30
2023-10-09T04:14:11.287Z,4.90
2023-10-09T04:19:12.875Z,4.57
2023-10-09T04:24:14.740Z,5.28
2023-10-09T04:29:27.519Z,4.90
2023-10-09T04:34:30.044Z,5.20
2023-10-09T04:39:31.688Z,5.03
2023-10-09T04:44:37.340Z,5.03
2023-10-09T04:49:57.680Z,4.90
2023-10-09T04:55:08.575Z,5.68
2023-10-09T05:00:36.947Z,4.85
2023-10-09T05:05:45.449Z,5.68
2023-10-09T05:10:59.808Z,4.97
2023-10-09T05:16:04.094Z,4.95
2023-10-09T05:21:14.938Z,5.00
2023-10-09T05:26:35.102Z,5.43
2023-10-09T05:31:56.727Z,4.75
2023-10-09T05:37:12.111Z,5.35
2023-10-09T05:42:19.488Z,4.47
2023-10-09T05:47:32.687Z,5.68
2023-10-09T05:52:54.588Z,5.47
2023-10-09T05:57:56.865Z,4.93
2023-10-09T06:03:16.859Z,4.97
2023-10-09T06:08:39.778Z,5.00
2023-10-09T06:13:47.952Z,5.20
2023-10-09T06:19:09.139Z,5.35
2023-10-09T06:24:16.596Z,5.80
2023-10-09T06:29:34.847Z,5.35
2023-10-09T06:34:37.038Z,4.57
2023-10-09T06:39:56.973Z,5.30
2023-10-09T06:45:07.714Z,5.65
2023-10-09T06:50:25.739Z,5.40
2023-10-09T06:55:36.009Z,5.18
2023-10-09T07:01:15.811Z,4.63
2023-10-09T07:06:26.766Z,5.37
2023-10-09T07:11:43.553Z,4.82
2023-10-09T07:16:58.540Z,5.18
2023-10-09T07:22:04.145Z,4.72
2023-10-09T07:27:10.966Z,4.95
2023-10-09T07:32:21.428Z,4.90
2023-10-09T07:37:32.110Z,5.15
2023-10-09T07:42:42.682Z,5.43
2023-10-09T07:48:02.221Z,5.35
2023-10-09T07:53:16.261Z,5.57
2023-10-09T07:58:17.900Z,5.35
2023-10-09T08:03:25.925Z,5.18
2023-10-09T08:08:38.336Z,5.15
2023-10-09T08:14:02.331Z,5.10
2023-10-09T08:19:24.557Z,5.30
2023-10-09T08:24:46.275Z,5.22
2023-10-09T08:29:49.086Z,5.05
2023-10-09T08:39:59.859Z,4.83
2023-10-09T08:45:05.152Z,5.47
2023-10-09T08:50:11.322Z,4.85
2023-10-09T08:55:17.162Z,5.05
2023-10-09T09:00:22.791Z,4.68
2023-10-09T09:05:29.837Z,5.07
2023-10-09T09:10:37.550Z,5.45
2023-10-09T09:15:41.451Z,5.30
2023-10-09T09:20:46.633Z,4.82
2023-10-09T09:25:49.745Z,4.93
2023-10-09T09:30:55.584Z,6.70
2023-10-09T09:35:59.043Z,5.70
2023-10-09T09:41:03.754Z,5.25
2023-10-09T09:46:08.999Z,5.25
2023-10-09T09:51:11.187Z,5.32
2023-10-09T09:56:18.041Z,5.30
2023-10-09T10:01:26.182Z,4.65
2023-10-09T10:06:30.386Z,5.97
2023-10-09T10:11:49.644Z,5.28
2023-10-09T10:17:22.757Z,5.15
2023-10-09T10:22:25.202Z,4.70
2023-10-09T10:27:46.196Z,4.43
2023-10-09T10:32:54.334Z,5.00
2023-10-09T10:38:11.986Z,5.55
2023-10-09T10:43:33.209Z,4.88
2023-10-09T10:48:38.939Z,4.95
2023-10-09T10:53:50.949Z,4.90
2023-10-09T10:58:56.236Z,4.15
2023-10-09T11:03:58.192Z,4.80
2023-10-09T11:09:10.024Z,5.00
2023-10-09T11:14:41.583Z,6.53
2023-10-09T11:19:44.789Z,4.57
2023-10-09T11:24:48.270Z,4.85
2023-10-09T11:29:53.027Z,5.00
2023-10-09T11:35:11.190Z,4.60
2023-10-09T11:40:54.188Z,5.05
2023-10-09T11:46:12.535Z,4.38
2023-10-09T11:51:20.417Z,4.78
2023-10-09T11:56:28.224Z,4.68
2023-10-09T12:01:36.601Z,5.22
2023-10-09T12:06:38.372Z,4.43
2023-10-09T12:11:54.036Z,5.00
2023-10-09T12:17:06.764Z,5.03
2023-10-09T12:22:17.222Z,5.70
2023-10-09T12:27:21.397Z,4.90
2023-10-09T12:32:22.887Z,5.53
2023-10-09T12:37:24.297Z,4.75
2023-10-09T12:42:25.835Z,4.72
2023-10-09T12:47:27.903Z,4.68
2023-10-09T12:52:31.309Z,4.45
2023-10-09T12:57:32.873Z,4.75
2023-10-09T13:02:35.044Z,5.07
2023-10-09T13:07:36.651Z,4.78
2023-10-09T13:12:44.207Z,4.45
2023-10-09T13:17:45.895Z,5.07
2023-10-09T13:22:49.651Z,5.90
2023-10-09T13:27:54.446Z,5.10
2023-10-09T13:32:56.367Z,4.70
2023-10-09T13:37:57.974Z,4.85
2023-10-09T13:43:02.053Z,4.40
2023-10-09T13:48:06.288Z,4.85
2023-10-09T13:53:11.898Z,4.43
2023-10-09T13:58:15.385Z,4.75
2023-10-09T14:03:20.996Z,4.90
2023-10-09T14:08:23.865Z,4.70
2023-10-09T14:13:29.611Z,5.15
2023-10-09T14:18:31.782Z,5.70
2023-10-09T14:23:35.813Z,5.05
2023-10-09T14:28:38.622Z,4.50
2023-10-09T14:33:41.708Z,4.80
2023-10-09T14:38:43.554Z,5.38
2023-10-09T14:43:45.087Z,5.63
2023-10-09T14:48:47.546Z,5.07
2023-10-09T14:53:50.602Z,4.85
2023-10-09T14:58:52.592Z,4.40
2023-10-09T15:03:54.639Z,4.72
2023-10-09T15:09:09.444Z,3.80
2023-10-09T15:14:11.076Z,3.17
2023-10-09T15:19:12.756Z,3.40
2023-10-09T15:24:20.609Z,3.25
2023-10-09T15:29:29.222Z,3.05
2023-10-09T15:34:32.365Z,2.63
2023-10-09T15:39:33.921Z,2.90
2023-10-09T15:44:38.295Z,3.40
2023-10-09T15:49:44.947Z,3.20
2023-10-09T15:54:47.263Z,2.85
2023-10-09T15:59:50.121Z,3.03
2023-10-09T16:04:51.729Z,2.75
2023-10-09T16:09:53.353Z,3.25
2023-10-09T16:14:55.048Z,3.00
2023-10-09T16:19:56.725Z,2.83
2023-10-09T16:25:01.595Z,3.05
2023-10-09T16:30:06.784Z,2.65
2023-10-09T16:35:11.152Z,2.88
2023-10-09T16:40:14.172Z,2.55
2023-10-09T16:45:18.992Z,2.63
2023-10-09T16:50:27.164Z,3.05
2023-10-09T16:55:30.340Z,2.70
2023-10-09T17:00:36.662Z,2.92
2023-10-09T17:05:55.748Z,3.53
2023-10-09T17:10:58.194Z,3.13
2023-10-09T17:15:59.740Z,4.38
2023-10-09T17:21:01.418Z,3.42
2023-10-09T17:26:03.716Z,3.63
2023-10-09T17:31:05.666Z,4.00
2023-10-09T17:36:07.629Z,3.33
2023-10-09T17:41:10.183Z,3.85
2023-10-09T17:46:13.136Z,4.45
2023-10-09T17:51:16.084Z,4.00
2023-10-09T17:56:20.072Z,4.10
2023-10-09T18:01:26.001Z,4.28
2023-10-09T18:06:28.613Z,3.88
2023-10-09T18:11:30.823Z,3.70
2023-10-09T18:16:34.078Z,3.90
2023-10-09T18:21:42.438Z,3.80
2023-10-09T18:26:47.521Z,4.20
2023-10-09T18:31:50.776Z,4.05
2023-10-09T18:36:53.553Z,3.55
2023-10-09T18:41:55.423Z,3.63
2023-10-09T18:46:57.726Z,3.42
2023-10-09T18:52:01.089Z,2.90
2023-10-09T18:57:05.651Z,3.40
2023-10-09T19:02:10.454Z,3.45
2023-10-09T19:07:12.576Z,3.15
2023-10-09T19:12:14.065Z,2.83
2023-10-09T19:17:16.251Z,3.40
2023-10-09T19:22:17.890Z,2.78
2023-10-09T19:27:26.642Z,3.70
2023-10-09T19:32:28.679Z,3.70
2023-10-09T19:37:30.321Z,3.60
2023-10-09T19:42:32.373Z,2.90
2023-10-09T19:47:34.487Z,3.20
2023-10-09T19:52:36.160Z,2.92
2023-10-09T19:57:40.045Z,2.95
2023-10-09T20:02:42.511Z,3.35
2023-10-09T20:07:44.170Z,3.17
2023-10-09T20:12:45.711Z,3.25
2023-10-09T20:17:47.159Z,3.15
2023-10-09T20:22:48.789Z,3.38
2023-10-09T20:27:50.956Z,3.42
2023-10-09T20:32:55.283Z,3.45
2023-10-09T20:37:57.396Z,3.65
2023-10-09T20:42:58.871Z,3.65
2023-10-09T20:48:00.400Z,3.72
2023-10-09T20:53:01.939Z,3.08
2023-10-09T20:58:05.372Z,2.60
2023-10-09T21:03:08.782Z,3.20
2023-10-09T21:08:10.609Z,2.75
2023-10-09T21:13:12.082Z,2.83
2023-10-09T21:18:13.676Z,3.50
2023-10-09T21:23:15.526Z,3.50
2023-10-09T21:28:17.031Z,3.70
2023-10-09T21:33:18.512Z,3.40
2023-10-09T21:38:20.577Z,3.63
2023-10-09T21:43:22.091Z,3.45
2023-10-09T21:48:23.499Z,3.35
2023-10-09T21:53:25.169Z,3.60
2023-10-09T21:58:26.623Z,4.10
2023-10-09T22:03:28.566Z,3.20
2023-10-09T22:08:30.209Z,3.47
2023-10-09T22:13:31.681Z,4.05
2023-10-09T22:18:33.598Z,3.55
2023-10-09T22:23:36.681Z,3.47
2023-10-09T22:28:41.616Z,3.72
2023-10-09T22:33:46.963Z,3.85
2023-10-09T22:38:56.167Z,4.20
2023-10-09T22:44:00.793Z,3.65
2023-10-09T22:49:14.418Z,4.10
2023-10-09T22:54:24.087Z,4.03
2023-10-09T23:04:37.941Z,3.60
2023-10-09T23:09:49.489Z,4.22
2023-10-09T23:14:52.117Z,4.28
2023-10-09T23:19:57.244Z,4.10
2023-10-09T23:25:19.250Z,4.40
2023-10-09T23:30:23.929Z,5.45
2023-10-09T23:35:45.076Z,4.60
2023-10-09T23:40:46.597Z,4.45
2023-10-09T23:45:48.529Z,5.18
2023-10-09T23:50:50.989Z,4.50
2023-10-09T23:55:53.372Z,4.15
